createdAt,value
2023-02-04T00:00:26.815Z,2.73
2023-02-04T00:02:53.639Z,2.76
2023-02-04T00:05:21.893Z,3.05
2023-02-04T00:07:48.561Z,3.27
2023-02-04T00:10:15.489Z,2.98
2023-02-04T00:12:44.620Z,3.21
2023-02-04T00:15:11.320Z,3.24
2023-02-04T00:17:39.441Z,2.95
2023-02-04T00:20:06.783Z,3.25
2023-02-04T00:22:33.470Z,2.78
2023-02-04T00:25:00.079Z,3.11
2023-02-04T00:27:26.755Z,3.00
2023-02-04T00:29:53.385Z,3.18
2023-02-04T00:32:20.010Z,3.14
2023-02-04T00:34:46.686Z,2.93
2023-02-04T00:37:13.339Z,2.86
2023-02-04T00:39:40.013Z,3.12
2023-02-04T00:42:07.113Z,2.98
2023-02-04T00:44:36.642Z,2.99
2023-02-04T00:47:03.697Z,2.99
2023-02-04T00:49:30.379Z,3.15
2023-02-04T00:51:57.002Z,3.07
2023-02-04T00:54:23.576Z,3.16
2023-02-04T00:56:50.169Z,3.12
2023-02-04T00:59:16.844Z,3.16
2023-02-04T01:01:44.187Z,3.09
2023-02-04T01:04:11.201Z,2.93
2023-02-04T01:06:37.897Z,3.02
2023-02-04T01:09:04.913Z,2.87
2023-02-04T01:11:31.735Z,2.30
2023-02-04T01:13:58.908Z,3.00
2023-02-04T01:16:25.640Z,2.84
2023-02-04T01:18:53.253Z,2.57
2023-02-04T01:21:19.863Z,2.82
2023-02-04T01:23:46.468Z,2.75
2023-02-04T01:26:13.159Z,2.75
2023-02-04T01:28:39.780Z,2.79
2023-02-04T01:31:06.549Z,2.78
2023-02-04T01:33:33.292Z,2.97
2023-02-04T01:36:00.044Z,2.93
2023-02-04T01:38:26.679Z,3.01
2023-02-04T01:40:53.686Z,2.85
2023-02-04T01:43:22.834Z,2.74
2023-02-04T01:45:50.768Z,2.87
2023-02-04T01:48:20.555Z,2.90
2023-02-04T01:50:53.122Z,2.86
2023-02-04T01:53:23.988Z,2.82
2023-02-04T01:55:52.380Z,2.57
2023-02-04T01:58:19.575Z,2.46
2023-02-04T02:00:46.564Z,2.56
2023-02-04T02:03:13.340Z,2.76
2023-02-04T02:05:49.163Z,2.73
2023-02-04T02:08:16.559Z,2.44
2023-02-04T02:10:46.580Z,2.75
2023-02-04T02:13:16.996Z,2.36
2023-02-04T02:15:45.097Z,2.62
2023-02-04T02:18:12.130Z,2.51
2023-02-04T02:20:39.255Z,2.35
2023-02-04T02:23:27.006Z,2.29
2023-02-04T02:25:53.654Z,2.35
2023-02-04T02:28:22.991Z,2.61
2023-02-04T02:30:51.141Z,2.49
2023-02-04T02:33:20.129Z,2.34
2023-02-04T02:35:51.138Z,2.49
2023-02-04T02:38:19.547Z,2.32
2023-02-04T02:40:47.626Z,2.30
2023-02-04T02:43:17.329Z,2.12
2023-02-04T02:45:44.982Z,2.45
2023-02-04T02:48:12.083Z,2.43
2023-02-04T02:50:39.664Z,2.25
2023-02-04T02:53:12.122Z,2.09
2023-02-04T02:55:40.179Z,2.05
2023-02-04T02:58:17.076Z,1.85
2023-02-04T03:00:44.204Z,2.37
2023-02-04T03:03:17.921Z,2.31
2023-02-04T03:05:48.684Z,2.10
2023-02-04T03:08:17.012Z,2.07
2023-02-04T03:10:45.015Z,2.44
2023-02-04T03:13:15.351Z,2.21
2023-02-04T03:15:44.585Z,2.02
2023-02-04T03:18:13.892Z,2.15
2023-02-04T03:20:41.230Z,2.32
2023-02-04T03:23:07.978Z,2.00
2023-02-04T03:25:34.663Z,1.97
2023-02-04T03:28:01.338Z,2.05
2023-02-04T03:30:28.620Z,2.02
2023-02-04T03:32:55.778Z,2.05
2023-02-04T03:35:22.713Z,1.94
2023-02-04T03:37:49.438Z,2.19
2023-02-04T03:40:16.321Z,1.94
2023-02-04T03:42:43.176Z,2.01
2023-02-04T03:45:10.018Z,1.84
2023-02-04T03:47:36.914Z,1.80
2023-02-04T03:50:05.313Z,1.95
2023-02-04T03:52:32.112Z,2.11
2023-02-04T03:54:58.730Z,2.06
2023-02-04T03:57:25.351Z,1.75
2023-02-04T03:59:51.931Z,1.34
2023-02-04T04:02:18.546Z,1.02
2023-02-04T04:04:45.134Z,0.48
2023-02-04T04:07:11.811Z,0.51
2023-02-04T04:09:38.433Z,0.42
2023-02-04T04:12:05.168Z,0.49
2023-02-04T04:14:31.788Z,0.18
2023-02-04T04:16:58.396Z,0.36
2023-02-04T04:19:25.037Z,0.43
2023-02-04T04:21:51.672Z,0.74
2023-02-04T04:24:18.325Z,0.75
2023-02-04T04:26:45.110Z,0.66
2023-02-04T04:29:11.797Z,0.65
2023-02-04T04:31:38.549Z,0.57
2023-02-04T04:34:05.228Z,0.44
2023-02-04T04:36:31.868Z,0.45
2023-02-04T04:38:58.483Z,0.77
2023-02-04T04:41:25.148Z,0.85
2023-02-04T04:43:51.739Z,0.83
2023-02-04T04:46:18.389Z,1.00
2023-02-04T04:48:45.011Z,0.82
2023-02-04T04:51:11.686Z,0.81
2023-02-04T04:53:38.325Z,0.86
2023-02-04T04:56:05.225Z,0.91
2023-02-04T04:58:31.811Z,0.59
2023-02-04T05:00:58.446Z,0.51
2023-02-04T05:03:25.067Z,0.64
2023-02-04T05:05:51.745Z,0.32
2023-02-04T05:08:20.578Z,0.28
2023-02-04T05:10:47.307Z,0.03
2023-02-04T05:13:14.121Z,0.36
2023-02-04T05:15:40.894Z,0.46
2023-02-04T05:18:07.497Z,0.37
2023-02-04T05:20:34.418Z,0.36
2023-02-04T05:23:01.294Z,0.40
2023-02-04T05:25:28.938Z,0.26
2023-02-04T05:27:55.668Z,-0.11
2023-02-04T05:30:22.468Z,-0.08
2023-02-04T05:32:49.151Z,-0.13
2023-02-04T05:35:16.085Z,0.10
2023-02-04T05:37:42.708Z,-0.17
2023-02-04T05:40:09.740Z,-0.08
2023-02-04T05:42:36.398Z,-0.14
2023-02-04T05:45:03.687Z,-0.11
2023-02-04T05:47:30.341Z,0.07
2023-02-04T05:49:57.080Z,0.06
2023-02-04T05:52:23.798Z,-0.19
2023-02-04T05:54:50.397Z,-0.04
2023-02-04T05:57:17.206Z,-0.10
2023-02-04T05:59:43.892Z,-0.22
2023-02-04T06:02:10.563Z,-0.07
2023-02-04T06:04:37.206Z,-0.33
2023-02-04T06:07:03.929Z,-0.05
2023-02-04T06:09:30.538Z,-0.32
2023-02-04T06:11:57.617Z,-0.73
2023-02-04T06:14:24.339Z,-0.16
2023-02-04T06:16:51.086Z,-0.18
2023-02-04T06:19:17.723Z,-0.41
2023-02-04T06:21:44.313Z,-0.47
2023-02-04T06:24:11.096Z,-0.45
2023-02-04T06:26:37.704Z,-0.38
2023-02-04T06:29:04.406Z,-0.48
2023-02-04T06:31:31.528Z,-0.36
2023-02-04T06:33:58.276Z,-0.34
2023-02-04T06:36:24.923Z,-0.51
2023-02-04T06:38:51.565Z,-0.40
2023-02-04T06:41:18.183Z,-0.55
2023-02-04T06:43:44.819Z,-0.34
2023-02-04T06:46:11.442Z,-0.32
2023-02-04T06:48:38.312Z,-0.93
2023-02-04T06:51:04.997Z,-0.56
2023-02-04T06:53:31.714Z,-0.52
2023-02-04T06:55:58.267Z,-0.51
2023-02-04T06:58:24.886Z,-0.33
2023-02-04T07:00:51.476Z,-0.46
2023-02-04T07:03:18.072Z,-0.55
2023-02-04T07:05:44.689Z,-0.73
2023-02-04T07:08:11.323Z,-0.33
2023-02-04T07:10:37.943Z,-0.49
2023-02-04T07:13:04.532Z,-0.23
2023-02-04T07:15:31.739Z,-0.48
2023-02-04T07:17:58.412Z,-0.40
2023-02-04T07:20:25.032Z,-0.83
2023-02-04T07:22:51.624Z,-0.23
2023-02-04T07:25:18.282Z,-0.37
2023-02-04T07:27:45.080Z,-0.13
2023-02-04T07:30:12.248Z,-0.08
2023-02-04T07:32:38.875Z,-0.15
2023-02-04T07:35:05.942Z,-0.31
2023-02-04T07:37:32.570Z,-0.21
2023-02-04T07:39:59.146Z,-0.36
2023-02-04T07:42:25.740Z,-0.37
2023-02-04T07:44:59.780Z,-0.22
2023-02-04T07:47:26.413Z,-0.17
2023-02-04T07:49:56.880Z,-0.47
2023-02-04T07:52:24.699Z,-0.28
2023-02-04T07:54:52.419Z,-0.02
2023-02-04T07:57:22.042Z,-0.09
2023-02-04T07:59:48.752Z,-0.21
2023-02-04T08:02:15.399Z,-0.20
2023-02-04T08:04:42.155Z,-0.21
2023-02-04T08:07:08.784Z,-0.18
2023-02-04T08:09:35.388Z,-0.27
2023-02-04T08:12:02.094Z,-0.41
2023-02-04T08:14:28.780Z,-0.19
2023-02-04T08:16:55.497Z,0.09
2023-02-04T08:19:22.318Z,-0.32
2023-02-04T08:21:49.196Z,-0.08
2023-02-04T08:24:16.919Z,-0.27
2023-02-04T08:26:44.635Z,0.20
2023-02-04T08:29:11.412Z,-0.04
2023-02-04T08:31:38.366Z,-0.05
2023-02-04T08:34:06.347Z,0.00
2023-02-04T08:36:33.758Z,0.22
2023-02-04T08:39:00.411Z,-0.01
2023-02-04T08:41:27.095Z,-0.02
2023-02-04T08:43:53.820Z,0.33
2023-02-04T08:46:20.753Z,0.36
2023-02-04T08:48:47.498Z,0.48
2023-02-04T08:51:14.189Z,0.58
2023-02-04T08:53:40.957Z,0.51
2023-02-04T08:56:08.989Z,0.66
2023-02-04T08:58:35.752Z,0.35
2023-02-04T09:01:03.144Z,0.08
2023-02-04T09:03:29.847Z,0.57
2023-02-04T09:05:56.448Z,0.71
2023-02-04T09:08:23.097Z,0.79
2023-02-04T09:10:49.801Z,0.64
2023-02-04T09:13:16.454Z,0.74
2023-02-04T09:15:43.134Z,0.69
2023-02-04T09:18:17.910Z,0.33
2023-02-04T09:20:45.436Z,0.62
2023-02-04T09:23:13.208Z,0.51
2023-02-04T09:25:40.582Z,0.13
2023-02-04T09:28:10.093Z,0.30
2023-02-04T09:30:37.960Z,0.31
2023-02-04T09:33:04.711Z,0.20
2023-02-04T09:35:31.368Z,0.23
2023-02-04T09:37:58.131Z,0.30
2023-02-04T09:40:28.372Z,0.35
2023-02-04T09:42:56.385Z,0.48
2023-02-04T09:45:26.819Z,0.49
2023-02-04T09:47:56.089Z,0.50
2023-02-04T09:50:24.647Z,0.68
2023-02-04T09:52:54.265Z,0.66
2023-02-04T09:55:25.295Z,0.67
2023-02-04T09:57:51.930Z,0.61
2023-02-04T10:00:26.526Z,1.00
2023-02-04T10:02:53.294Z,0.55
2023-02-04T10:05:27.677Z,0.93
2023-02-04T10:07:54.369Z,1.11
2023-02-04T10:10:25.209Z,0.99
2023-02-04T10:12:55.430Z,0.44
2023-02-04T10:15:22.509Z,0.79
2023-02-04T10:17:52.569Z,0.67
2023-02-04T10:20:24.161Z,0.65
2023-02-04T10:22:53.736Z,0.65
2023-02-04T10:25:23.268Z,0.74
2023-02-04T10:27:50.482Z,0.91
2023-02-04T10:30:23.579Z,0.86
2023-02-04T10:32:51.438Z,0.85
2023-02-04T10:35:32.251Z,0.47
2023-02-04T10:38:06.788Z,0.71
2023-02-04T10:40:35.661Z,0.79
2023-02-04T10:43:16.649Z,0.77
2023-02-04T10:45:48.810Z,0.78
2023-02-04T10:48:19.584Z,0.77
2023-02-04T10:50:48.608Z,0.78
2023-02-04T10:53:39.521Z,0.92
2023-02-04T10:56:21.734Z,0.87
2023-02-04T10:58:49.376Z,0.48
2023-02-04T11:01:16.891Z,0.75
2023-02-04T11:03:45.907Z,0.56
2023-02-04T11:06:20.991Z,0.71
2023-02-04T11:08:48.526Z,0.68
2023-02-04T11:11:26.326Z,0.96
2023-02-04T11:13:54.602Z,1.22
2023-02-04T11:16:24.339Z,1.08
2023-02-04T11:18:56.280Z,1.23
2023-02-04T11:21:34.121Z,1.41
2023-02-04T11:24:09.890Z,1.43
2023-02-04T11:26:44.934Z,1.30
2023-02-04T11:29:34.809Z,1.48
2023-02-04T11:32:22.799Z,1.01
2023-02-04T11:34:53.265Z,1.28
2023-02-04T11:37:37.057Z,1.28
2023-02-04T11:40:22.437Z,1.31
2023-02-04T11:42:49.587Z,1.12
2023-02-04T11:45:21.457Z,0.91
2023-02-04T11:47:48.270Z,1.33
2023-02-04T11:50:25.010Z,1.41
2023-02-04T11:52:54.533Z,1.28
2023-02-04T11:55:21.214Z,2.05
2023-02-04T11:57:52.694Z,1.73
2023-02-04T12:00:22.494Z,1.63
2023-02-04T12:02:54.860Z,1.28
2023-02-04T12:05:21.655Z,1.17
2023-02-04T12:07:49.341Z,1.31
2023-02-04T12:10:21.807Z,1.42
2023-02-04T12:12:55.777Z,0.97
2023-02-04T12:15:25.277Z,0.99
2023-02-04T12:18:03.189Z,0.55
2023-02-04T12:20:29.975Z,1.13
2023-02-04T12:22:57.242Z,1.05
2023-02-04T12:25:23.942Z,0.82
2023-02-04T12:27:51.473Z,0.69
2023-02-04T12:30:20.578Z,1.17
2023-02-04T12:32:47.259Z,1.36
2023-02-04T12:35:14.272Z,1.52
2023-02-04T12:37:40.990Z,1.54
2023-02-04T12:40:08.698Z,1.56
2023-02-04T12:42:35.443Z,1.29
2023-02-04T12:45:02.075Z,1.22
2023-02-04T12:47:28.743Z,1.39
2023-02-04T12:49:55.436Z,1.61
2023-02-04T12:52:22.090Z,1.09
2023-02-04T12:54:48.710Z,1.41
2023-02-04T12:57:19.706Z,1.62
2023-02-04T12:59:47.333Z,1.87
2023-02-04T13:02:14.024Z,2.34
2023-02-04T13:04:41.644Z,1.38
2023-02-04T13:07:09.410Z,2.46
2023-02-04T13:09:37.144Z,1.75
2023-02-04T13:12:24.440Z,2.43
2023-02-04T13:14:51.108Z,2.62
2023-02-04T13:17:19.648Z,2.84
2023-02-04T13:19:46.268Z,1.69
2023-02-04T13:22:12.943Z,1.60
2023-02-04T13:24:39.607Z,1.68
2023-02-04T13:27:06.488Z,1.52
2023-02-04T13:29:33.092Z,1.71
2023-02-04T13:32:00.281Z,3.99
2023-02-04T13:34:27.065Z,3.55
2023-02-04T13:36:54.064Z,5.93
2023-02-04T13:39:20.781Z,5.98
2023-02-04T13:41:47.378Z,7.18
2023-02-04T13:44:14.129Z,5.34
2023-02-04T13:46:40.770Z,5.53
2023-02-04T13:49:07.384Z,6.34
2023-02-04T13:51:34.042Z,6.26
2023-02-04T13:54:00.766Z,3.32
2023-02-04T13:56:28.388Z,2.22
2023-02-04T13:58:55.050Z,2.06
2023-02-04T14:01:21.806Z,1.73
2023-02-04T14:03:48.471Z,1.66
2023-02-04T14:06:15.280Z,1.90
2023-02-04T14:08:41.901Z,3.55
2023-02-04T14:11:08.630Z,4.10
2023-02-04T14:13:35.294Z,4.03
2023-02-04T14:16:01.968Z,4.04
2023-02-04T14:18:28.672Z,3.17
2023-02-04T14:20:55.404Z,3.70
2023-02-04T14:23:22.432Z,4.64
2023-02-04T14:25:49.019Z,4.56
2023-02-04T14:28:15.721Z,4.69
2023-02-04T14:30:42.498Z,4.51
2023-02-04T14:33:09.404Z,4.83
2023-02-04T14:35:37.599Z,4.00
2023-02-04T14:38:04.311Z,3.17
2023-02-04T14:40:31.469Z,2.25
2023-02-04T14:42:58.270Z,2.03
2023-02-04T14:45:24.911Z,1.50
2023-02-04T14:47:52.669Z,1.63
2023-02-04T14:50:19.390Z,1.19
2023-02-04T14:52:46.138Z,1.12
2023-02-04T14:55:13.011Z,1.05
2023-02-04T14:57:39.690Z,1.08
2023-02-04T15:00:07.099Z,1.07
2023-02-04T15:02:33.763Z,1.33
2023-02-04T15:05:00.479Z,1.40
2023-02-04T15:07:27.105Z,-0.02
2023-02-04T15:09:53.960Z,1.20
2023-02-04T15:12:20.602Z,1.22
2023-02-04T15:14:47.256Z,1.08
2023-02-04T15:17:14.224Z,1.13
2023-02-04T15:19:40.873Z,0.89
2023-02-04T15:22:07.772Z,1.00
2023-02-04T15:24:34.388Z,1.21
2023-02-04T15:27:01.110Z,0.64
2023-02-04T15:29:27.808Z,1.07
2023-02-04T15:31:54.516Z,0.93
2023-02-04T15:34:21.168Z,0.99
2023-02-04T15:36:47.767Z,0.65
2023-02-04T15:39:14.473Z,0.89
2023-02-04T15:41:41.277Z,0.89
2023-02-04T15:44:07.906Z,0.72
2023-02-04T15:46:37.567Z,0.77
2023-02-04T15:49:04.574Z,0.86
2023-02-04T15:51:31.160Z,0.64
2023-02-04T15:53:57.792Z,0.75
2023-02-04T15:56:24.431Z,0.77
2023-02-04T15:58:54.871Z,0.50
2023-02-04T16:01:21.530Z,0.28
2023-02-04T16:03:49.593Z,0.54
2023-02-04T16:06:16.520Z,0.27
2023-02-04T16:08:43.380Z,0.21
2023-02-04T16:11:10.052Z,0.47
2023-02-04T16:13:37.233Z,0.43
2023-02-04T16:16:04.074Z,0.41
2023-02-04T16:18:31.127Z,0.14
2023-02-04T16:20:57.716Z,-0.23
2023-02-04T16:23:24.428Z,0.24
2023-02-04T16:25:52.036Z,0.33
2023-02-04T16:28:18.955Z,-0.10
2023-02-04T16:30:45.765Z,0.17
2023-02-04T16:33:12.545Z,0.09
2023-02-04T16:36:00.912Z,-0.09
2023-02-04T16:38:28.584Z,0.02
2023-02-04T16:40:55.263Z,-0.02
2023-02-04T16:43:23.073Z,0.20
2023-02-04T16:45:50.194Z,-0.41
2023-02-04T16:48:17.052Z,0.01
2023-02-04T16:50:43.940Z,-0.18
2023-02-04T16:53:14.915Z,0.04
2023-02-04T16:55:48.364Z,-0.02
2023-02-04T16:58:15.795Z,-0.54
2023-02-04T17:00:42.462Z,-0.29
2023-02-04T17:03:10.366Z,-0.28
2023-02-04T17:05:38.548Z,-0.31
2023-02-04T17:08:06.176Z,-0.21
2023-02-04T17:10:51.948Z,-0.14
2023-02-04T17:13:19.201Z,-0.07
2023-02-04T17:15:45.804Z,-0.49
2023-02-04T17:18:12.443Z,-0.60
2023-02-04T17:20:39.105Z,-0.22
2023-02-04T17:23:05.722Z,-0.08
2023-02-04T17:25:32.846Z,-0.33
2023-02-04T17:27:59.849Z,-0.61
2023-02-04T17:30:26.615Z,-0.79
2023-02-04T17:32:53.322Z,-0.70
2023-02-04T17:35:19.962Z,-0.92
2023-02-04T17:37:46.767Z,-0.76
2023-02-04T17:40:13.409Z,-0.96
2023-02-04T17:42:40.950Z,-0.77
2023-02-04T17:45:10.579Z,-0.86
2023-02-04T17:47:38.608Z,-1.16
2023-02-04T17:50:08.143Z,-1.12
2023-02-04T17:52:35.466Z,-1.25
2023-02-04T17:55:17.188Z,-1.06
2023-02-04T17:57:44.002Z,-1.21
2023-02-04T18:00:14.861Z,-1.31
2023-02-04T18:02:43.581Z,-1.53
2023-02-04T18:05:19.550Z,-1.18
2023-02-04T18:08:05.992Z,-1.18
2023-02-04T18:10:36.374Z,-1.50
2023-02-04T18:13:20.465Z,-1.39
2023-02-04T18:15:53.691Z,-1.50
2023-02-04T18:18:23.531Z,-1.40
2023-02-04T18:21:18.241Z,-1.33
2023-02-04T18:23:51.300Z,-1.20
2023-02-04T18:26:22.418Z,-0.97
2023-02-04T18:28:49.753Z,-1.03
2023-02-04T18:31:34.211Z,-1.05
2023-02-04T18:34:10.905Z,-1.45
2023-02-04T18:36:37.872Z,-1.26
2023-02-04T18:39:17.741Z,-1.47
2023-02-04T18:41:47.795Z,-1.27
2023-02-04T18:44:30.374Z,-1.50
2023-02-04T18:46:57.201Z,-1.63
2023-02-04T18:49:28.188Z,-1.89
2023-02-04T18:51:55.759Z,-2.11
2023-02-04T18:54:25.489Z,-1.94
2023-02-04T18:56:53.563Z,-2.24
2023-02-04T18:59:21.843Z,-2.20
2023-02-04T19:01:49.112Z,-2.04
2023-02-04T19:04:23.330Z,-1.87
2023-02-04T19:06:52.328Z,-1.81
2023-02-04T19:09:24.214Z,-1.93
2023-02-04T19:11:55.640Z,-2.11
2023-02-04T19:14:29.089Z,-2.02
2023-02-04T19:17:17.734Z,-1.97
2023-02-04T19:19:54.275Z,-2.08
2023-02-04T19:22:33.029Z,-2.03
2023-02-04T19:25:17.601Z,-2.04
2023-02-04T19:27:50.166Z,-2.16
2023-02-04T19:30:44.178Z,-2.45
2023-02-04T19:33:16.943Z,-2.64
2023-02-04T19:35:45.236Z,-2.58
2023-02-04T19:38:30.679Z,-2.73
2023-02-04T19:40:57.425Z,-2.96
2023-02-04T19:43:37.132Z,-2.82
2023-02-04T19:46:24.093Z,-2.66
2023-02-04T19:48:51.645Z,-2.68
2023-02-04T19:51:29.483Z,-2.50
2023-02-04T19:54:18.285Z,-2.44
2023-02-04T19:56:44.969Z,-2.59
2023-02-04T19:59:33.357Z,-2.47
2023-02-04T20:02:17.507Z,-2.46
2023-02-04T20:04:48.584Z,-2.68
2023-02-04T20:07:26.073Z,-2.53
2023-02-04T20:10:14.320Z,-2.40
2023-02-04T20:12:41.334Z,-2.76
2023-02-04T20:15:12.659Z,-2.62
2023-02-04T20:17:45.820Z,-2.97
2023-02-04T20:20:17.558Z,-2.70
2023-02-04T20:22:48.242Z,-2.81
2023-02-04T20:25:21.014Z,-2.58
2023-02-04T20:27:55.291Z,-2.40
2023-02-04T20:30:26.998Z,-2.95
2023-02-04T20:32:59.931Z,-2.90
2023-02-04T20:35:31.633Z,-2.64
2023-02-04T20:38:01.081Z,-2.57
2023-02-04T20:40:32.468Z,-2.67
2023-02-04T20:43:01.971Z,-2.58
2023-02-04T20:45:47.303Z,-2.73
2023-02-04T20:48:16.984Z,-2.84
2023-02-04T20:50:45.566Z,-3.34
2023-02-04T20:53:12.253Z,-3.24
2023-02-04T20:55:39.108Z,-3.34
2023-02-04T20:58:09.018Z,-3.24
2023-02-04T21:00:38.365Z,-3.19
2023-02-04T21:03:18.192Z,-3.14
2023-02-04T21:05:44.879Z,-3.24
2023-02-04T21:08:20.623Z,-3.18
2023-02-04T21:10:48.099Z,-3.22
2023-02-04T21:13:14.879Z,-3.27
2023-02-04T21:15:42.644Z,-3.37
2023-02-04T21:18:09.322Z,-3.18
2023-02-04T21:20:37.227Z,-3.54
2023-02-04T21:23:05.120Z,-3.20
2023-02-04T21:25:32.517Z,-3.33
2023-02-04T21:27:59.485Z,-3.39
2023-02-04T21:30:30.143Z,-3.48
2023-02-04T21:32:58.203Z,-3.38
2023-02-04T21:35:25.026Z,-3.57
2023-02-04T21:37:52.325Z,-3.73
2023-02-04T21:40:22.091Z,-3.66
2023-02-04T21:42:49.520Z,-3.79
2023-02-04T21:45:20.543Z,-3.50
2023-02-04T21:47:48.495Z,-3.53
2023-02-04T21:50:16.748Z,-3.65
2023-02-04T21:52:44.231Z,-3.53
2023-02-04T21:55:12.904Z,-3.75
2023-02-04T21:57:42.390Z,-3.60
2023-02-04T22:00:09.884Z,-4.12
2023-02-04T22:02:36.762Z,-3.75
2023-02-04T22:05:07.311Z,-3.70
2023-02-04T22:07:35.579Z,-4.10
2023-02-04T22:10:04.015Z,-3.67
2023-02-04T22:12:30.794Z,-3.68
2023-02-04T22:15:15.886Z,-3.55
2023-02-04T22:17:42.899Z,-3.77
2023-02-04T22:20:10.594Z,-3.84
2023-02-04T22:22:37.233Z,-3.89
2023-02-04T22:25:04.444Z,-3.83
2023-02-04T22:27:31.124Z,-4.07
2023-02-04T22:29:57.771Z,-3.82
2023-02-04T22:32:24.491Z,-3.80
2023-02-04T22:34:51.176Z,-4.01
2023-02-04T22:37:17.812Z,-3.75
2023-02-04T22:39:44.730Z,-4.14
2023-02-04T22:42:11.445Z,-3.92
2023-02-04T22:44:38.108Z,-4.12
2023-02-04T22:47:05.128Z,-4.04
2023-02-04T22:49:33.462Z,-4.08
2023-02-04T22:52:00.259Z,-4.06
2023-02-04T22:54:26.938Z,-4.28
2023-02-04T22:56:53.671Z,-4.09
2023-02-04T22:59:20.353Z,-4.17
2023-02-04T23:01:47.070Z,-4.45
2023-02-04T23:04:13.750Z,-4.18
2023-02-04T23:06:40.497Z,-4.20
2023-02-04T23:09:07.341Z,-4.16
2023-02-04T23:11:34.123Z,-4.35
2023-02-04T23:14:00.855Z,-4.24
2023-02-04T23:16:27.656Z,-4.32
2023-02-04T23:18:54.356Z,-4.44
2023-02-04T23:21:22.962Z,-4.41
2023-02-04T23:23:50.890Z,-4.46
2023-02-04T23:26:21.588Z,-4.49
2023-02-04T23:28:48.548Z,-4.38
2023-02-04T23:31:15.254Z,-4.55
2023-02-04T23:33:41.866Z,-4.59
2023-02-04T23:36:08.760Z,-4.62
2023-02-04T23:38:35.396Z,-4.41
2023-02-04T23:41:02.305Z,-4.56
2023-02-04T23:43:29.273Z,-4.33
2023-02-04T23:46:00.153Z,-4.58
2023-02-04T23:48:27.037Z,-4.58
2023-02-04T23:50:56.925Z,-4.64
2023-02-04T23:53:24.284Z,-4.63
2023-02-04T23:55:51.502Z,-4.54
2023-02-04T23:58:18.728Z,-4.76
